Haynes, AR (72341)

12:46 PM CST en Marzo 03, 2015 (GMT -0600)
marianna,arrkansas | Change Station
CLOSE
Current Station
Estación meteorológica personal
Location: Marianna, AR
Altura: 230 ft
Estaciones meteorológicas cercanas
Aviso en curso: Winter Storm Warning

Alt 230 ft 34.77 °N, 90.77 °W | Updated 2 minutes ago

Nublado
Nublado
47.7 ° F
Sensación térmica 47 ° F
N
3.2
Viento Variable Viento desde Sur

Hoy
Alta -- | Baja -- ° F
--% Posibilidad de precipitaciones
Ayer
Alta -- | Baja -- ° F
Precip. -- pul
6:29 AM 6:00 PM
Gibosa creciente, 97% visible
Presión 30.03 pul
Visibilidad 1.0 Millas
Nubes Nublado 100 ft
Vientos helados 47 ° F
Punto de rocío 47 ° F
Humedad 99%
Precipitaciones 0.00 pul
Espesor de la nieve No disponible.
UV 2 de una escala de 12
Polen 6.00 de una escala de 12
Calidad del aire No disponible.
Flu Activity No disponible.
METAR KUTA 031835Z AUTO 19008KT 1SM BR OVC001 11/11 A3003 RMK AO2

More Conditions Fewer Conditions

Presión 30.03 pul
Visibilidad 1.0 Millas
Nubes Nublado 100 ft
Vientos helados 47 ° F
Punto de rocío 47 ° F
Humedad 99%
Precipitaciones 0.00 pul
Espesor de la nieve No disponible.
UV 2 de una escala de 12
Polen 6.00 de una escala de 12
Calidad del aire No disponible.
Flu Activity No disponible.
METAR KUTA 031835Z AUTO 19008KT 1SM BR OVC001 11/11 A3003 RMK AO2

More Conditions Fewer Conditions

10-Day Weather Forecast

Almanac

Astronomía

Mar. 03, 2015 Salida Puesta
Hora real
Crepúsculo civil
Crepúsculo náutico
Crepúsculo astronómico
Luna
Horas de luz
Horas de luz
Tomorrow will be .
, % of the Moon is Illuminated

Extremos de hoy

Máximos del estado Bajos del estado

Community

WunderPhotos

Upload Photos

1,802,198 ¡fotos cargadas!

WunderBlogs® & News

Nearby

Calidad del aire

  Calidad del aire Índice AQ Contaminante
Not available.

Grosos de nieve

Estación Profundido Altura

Actividad de terremotos

Ciudad Distance Mag. Tiempo y dato
Magnitud mínima muestra es 2,5.

Temperaturas de aguas costeras

Lugar Temperatura

Estaciones meteorológicas cercanas

Winter Storm Warning
Statement as of 2:08 AM CST en Marzo 03, 2015

... Winter Storm Warning in effect from noon Wednesday to 6 am CST
Thursday...

The National Weather Service in Memphis has issued a Winter Storm
Warning for freezing rain... sleet and snow... which is in effect
from noon Wednesday to 6 am CST Thursday. The Winter Storm Watch
is no longer in effect.

* Snow/sleet/ice accumulations... snow accumulations of 1 to 4
inches... sleet accumulations of 0.5 to 1.5 inches... and ice
accumulations of a quarter of an inch are expected.

* Timing... 12 PM CST Wednesday to 6 am CST Thursday.

* Impacts... travel will become hazardous. Sporadic power outages
will be possible.

Precautionary/preparedness actions...

A Winter Storm Warning means significant amounts of snow...
sleet... and ice are expected or occurring. Strong winds are also
possible. This will make travel very hazardous or impossible.